createdAt,value
2023-09-17T00:01:55.691Z,20.25
2023-09-17T00:04:24.535Z,21.00
2023-09-17T00:06:52.891Z,20.75
2023-09-17T00:09:21.124Z,21.25
2023-09-17T00:11:49.484Z,21.10
2023-09-17T00:14:18.167Z,20.63
2023-09-17T00:16:46.523Z,20.75
2023-09-17T00:19:17.560Z,21.05
2023-09-17T00:21:46.055Z,21.08
2023-09-17T00:24:14.315Z,21.13
2023-09-17T00:26:42.579Z,21.33
2023-09-17T00:29:10.812Z,20.77
2023-09-17T00:31:39.395Z,21.17
2023-09-17T00:34:07.685Z,20.95
2023-09-17T00:36:37.487Z,22.02
2023-09-17T00:39:05.785Z,21.52
2023-09-17T00:41:33.990Z,22.15
2023-09-17T00:44:02.488Z,21.65
2023-09-17T00:46:31.035Z,21.92
2023-09-17T00:48:59.647Z,21.33
2023-09-17T00:51:27.963Z,21.20
2023-09-17T00:53:58.376Z,20.90
2023-09-17T00:56:28.274Z,21.58
2023-09-17T00:58:57.064Z,20.88
2023-09-17T01:01:25.403Z,20.80
2023-09-17T01:03:54.271Z,19.98
2023-09-17T01:06:22.791Z,21.25
2023-09-17T01:08:51.432Z,19.90
2023-09-17T01:11:21.457Z,20.30
2023-09-17T01:13:53.119Z,21.45
2023-09-17T01:16:23.783Z,20.33
2023-09-17T01:18:54.485Z,20.80
2023-09-17T01:21:27.292Z,19.45
2023-09-17T01:24:04.642Z,19.80
2023-09-17T01:26:37.205Z,21.63
2023-09-17T01:29:06.958Z,19.70
2023-09-17T01:31:35.526Z,19.42
2023-09-17T01:34:03.968Z,20.08
2023-09-17T01:36:35.086Z,19.48
2023-09-17T01:39:06.270Z,20.17
2023-09-17T01:41:37.101Z,18.67
2023-09-17T01:44:07.591Z,19.95
2023-09-17T01:46:36.531Z,19.48
2023-09-17T01:49:05.227Z,19.55
2023-09-17T01:51:33.994Z,20.27
2023-09-17T01:54:02.418Z,19.05
2023-09-17T01:56:30.626Z,18.25
2023-09-17T01:58:58.854Z,17.90
2023-09-17T02:01:29.035Z,18.90
2023-09-17T02:03:58.903Z,18.52
2023-09-17T02:06:27.247Z,19.25
2023-09-17T02:08:55.497Z,18.08
2023-09-17T02:11:23.827Z,17.67
2023-09-17T02:13:52.492Z,19.02
2023-09-17T02:16:22.083Z,18.15
2023-09-17T02:18:53.002Z,18.45
2023-09-17T02:21:21.484Z,18.25
2023-09-17T02:23:50.136Z,18.55
2023-09-17T02:26:18.522Z,17.73
2023-09-17T02:28:46.787Z,18.95
2023-09-17T02:31:15.567Z,18.08
2023-09-17T02:33:43.835Z,18.50
2023-09-17T02:36:14.515Z,17.50
2023-09-17T02:38:43.206Z,17.63
2023-09-17T02:41:11.459Z,18.58
2023-09-17T02:43:40.724Z,17.33
2023-09-17T02:46:09.080Z,18.27
2023-09-17T02:48:37.784Z,17.55
2023-09-17T02:51:06.019Z,17.48
2023-09-17T02:53:35.606Z,18.45
2023-09-17T02:56:05.613Z,18.27
2023-09-17T02:58:33.975Z,17.45
2023-09-17T03:01:02.397Z,17.02
2023-09-17T03:03:30.745Z,16.92
2023-09-17T03:06:00.448Z,17.08
2023-09-17T03:08:28.982Z,16.73
2023-09-17T03:11:02.088Z,17.17
2023-09-17T03:13:30.425Z,17.05
2023-09-17T03:15:59.391Z,16.88
2023-09-17T03:18:27.670Z,17.13
2023-09-17T03:20:55.945Z,16.17
2023-09-17T03:23:24.279Z,17.33
2023-09-17T03:25:52.623Z,16.00
2023-09-17T03:28:22.250Z,16.88
2023-09-17T03:30:50.536Z,16.23
2023-09-17T03:33:18.860Z,17.33
2023-09-17T03:35:47.327Z,16.08
2023-09-17T03:38:15.629Z,16.17
2023-09-17T03:40:43.901Z,15.73
2023-09-17T03:43:12.400Z,16.15
2023-09-17T03:45:42.370Z,15.88
2023-09-17T03:48:10.597Z,15.07
2023-09-17T03:50:40.448Z,15.68
2023-09-17T03:53:09.255Z,15.70
2023-09-17T03:55:37.534Z,15.38
2023-09-17T03:58:05.917Z,15.48
2023-09-17T04:00:34.247Z,15.33
2023-09-17T04:03:03.953Z,15.55
2023-09-17T04:05:32.206Z,15.32
2023-09-17T04:08:00.439Z,14.90
2023-09-17T04:10:28.700Z,15.15
2023-09-17T04:12:56.934Z,15.25
2023-09-17T04:15:25.168Z,14.60
2023-09-17T04:17:53.984Z,14.80
2023-09-17T04:20:24.900Z,15.30
2023-09-17T04:22:53.410Z,15.40
2023-09-17T04:25:22.771Z,15.80
2023-09-17T04:27:51.705Z,15.57
2023-09-17T04:30:20.257Z,14.93
2023-09-17T04:32:49.644Z,15.80
2023-09-17T04:35:18.954Z,15.45
2023-09-17T04:37:49.869Z,15.02
2023-09-17T04:40:19.685Z,15.82
2023-09-17T04:42:49.014Z,16.33
2023-09-17T04:45:33.521Z,15.63
2023-09-17T04:48:01.812Z,16.05
2023-09-17T04:50:30.428Z,16.67
2023-09-17T04:53:00.056Z,16.33
2023-09-17T04:55:28.379Z,15.88
2023-09-17T04:57:56.694Z,15.73
2023-09-17T05:00:24.917Z,16.35
2023-09-17T05:02:53.266Z,16.98
2023-09-17T05:05:25.022Z,16.38
2023-09-17T05:07:55.179Z,16.23
2023-09-17T05:10:24.855Z,16.50
2023-09-17T05:12:53.151Z,16.20
2023-09-17T05:15:22.333Z,16.80
2023-09-17T05:17:51.422Z,16.38
2023-09-17T05:20:22.593Z,16.30
2023-09-17T05:22:50.993Z,16.88
2023-09-17T05:25:19.504Z,16.20
2023-09-17T05:27:50.720Z,15.93
2023-09-17T05:30:19.353Z,16.02
2023-09-17T05:32:48.215Z,16.33
2023-09-17T05:35:16.517Z,16.63
2023-09-17T05:37:44.955Z,16.33
2023-09-17T05:40:13.346Z,17.00
2023-09-17T05:42:41.742Z,17.27
2023-09-17T05:45:12.180Z,16.88
2023-09-17T05:47:41.613Z,17.07
2023-09-17T05:50:10.552Z,17.00
2023-09-17T05:52:39.177Z,16.27
2023-09-17T05:55:07.899Z,16.65
2023-09-17T05:57:36.152Z,16.50
2023-09-17T06:00:05.479Z,15.55
2023-09-17T06:02:35.109Z,14.67
2023-09-17T06:05:04.550Z,15.75
2023-09-17T06:07:32.939Z,15.60
2023-09-17T06:10:01.170Z,15.75
2023-09-17T06:12:29.401Z,14.80
2023-09-17T06:14:57.676Z,15.07
2023-09-17T06:17:25.981Z,14.70
2023-09-17T06:19:55.637Z,13.48
2023-09-17T06:22:24.851Z,15.60
2023-09-17T06:24:53.166Z,14.25
2023-09-17T06:27:22.189Z,14.02
2023-09-17T06:29:50.655Z,14.07
2023-09-17T06:32:18.944Z,13.20
2023-09-17T06:34:47.282Z,14.32
2023-09-17T06:37:16.902Z,14.23
2023-09-17T06:39:45.130Z,14.20
2023-09-17T06:42:13.365Z,14.45
2023-09-17T06:44:41.573Z,14.10
2023-09-17T06:47:09.909Z,13.77
2023-09-17T06:49:38.247Z,13.73
2023-09-17T06:52:06.537Z,13.87
2023-09-17T06:54:36.322Z,14.95
2023-09-17T06:57:04.678Z,13.70
2023-09-17T06:59:33.530Z,13.98
2023-09-17T07:02:01.779Z,13.13
2023-09-17T07:04:30.108Z,14.85
2023-09-17T07:07:01.818Z,13.40
2023-09-17T07:09:30.578Z,13.20
2023-09-17T07:12:00.209Z,14.95
2023-09-17T07:14:28.522Z,14.85
2023-09-17T07:16:57.027Z,14.32
2023-09-17T07:19:25.408Z,15.00
2023-09-17T07:21:53.686Z,14.48
2023-09-17T07:24:21.917Z,13.30
2023-09-17T07:26:50.189Z,13.65
2023-09-17T07:29:19.930Z,16.10
2023-09-17T07:31:49.039Z,15.17
2023-09-17T07:34:17.308Z,15.55
2023-09-17T07:36:45.539Z,15.45
2023-09-17T07:39:13.762Z,15.93
2023-09-17T07:41:42.004Z,16.10
2023-09-17T07:44:10.259Z,17.67
2023-09-17T07:46:40.024Z,17.58
2023-09-17T07:49:09.007Z,17.00
2023-09-17T07:51:37.220Z,18.47
2023-09-17T07:54:05.968Z,18.45
2023-09-17T07:56:34.225Z,17.98
2023-09-17T07:59:02.488Z,18.33
2023-09-17T08:01:31.358Z,19.83
2023-09-17T08:04:01.227Z,19.03
2023-09-17T08:06:29.598Z,19.60
2023-09-17T08:08:57.836Z,19.08
2023-09-17T08:11:28.256Z,19.08
2023-09-17T08:13:56.649Z,18.70
2023-09-17T08:16:25.889Z,19.17
2023-09-17T08:18:54.574Z,18.33
2023-09-17T08:21:24.998Z,18.23
2023-09-17T08:23:53.523Z,18.97
2023-09-17T08:26:22.707Z,19.73
2023-09-17T08:28:51.566Z,20.48
2023-09-17T08:31:19.997Z,20.55
2023-09-17T08:33:48.871Z,19.73
2023-09-17T08:36:18.133Z,20.15
2023-09-17T08:38:49.858Z,20.87
2023-09-17T08:41:18.671Z,20.87
2023-09-17T08:43:47.884Z,19.08
2023-09-17T08:46:16.409Z,19.80
2023-09-17T08:48:44.682Z,18.90
2023-09-17T08:51:13.081Z,20.05
2023-09-17T08:53:42.477Z,18.30
2023-09-17T08:56:13.295Z,18.70
2023-09-17T08:58:43.498Z,18.40
2023-09-17T09:01:13.532Z,17.88
2023-09-17T09:03:42.624Z,17.48
2023-09-17T09:06:11.461Z,17.33
2023-09-17T09:08:41.033Z,18.10
2023-09-17T09:11:09.760Z,17.53
2023-09-17T09:13:39.908Z,17.50
2023-09-17T09:16:08.284Z,18.07
2023-09-17T09:18:36.899Z,17.60
2023-09-17T09:21:05.331Z,18.07
2023-09-17T09:23:33.539Z,17.88
2023-09-17T09:26:01.871Z,18.13
2023-09-17T09:28:32.688Z,18.13
2023-09-17T09:31:03.270Z,18.47
2023-09-17T09:33:31.527Z,18.50
2023-09-17T09:36:01.313Z,18.65
2023-09-17T09:38:30.734Z,18.88
2023-09-17T09:40:59.539Z,19.13
2023-09-17T09:43:32.005Z,19.00
2023-09-17T09:46:05.786Z,18.75
2023-09-17T09:48:34.398Z,18.77
2023-09-17T09:51:02.681Z,18.63
2023-09-17T09:53:30.900Z,18.40
2023-09-17T09:55:59.418Z,18.98
2023-09-17T09:58:27.949Z,18.70
2023-09-17T10:00:56.360Z,18.70
2023-09-17T10:03:26.625Z,18.60
2023-09-17T10:05:54.918Z,19.33
2023-09-17T10:08:24.080Z,18.63
2023-09-17T10:10:52.582Z,18.23
2023-09-17T10:13:20.888Z,18.23
2023-09-17T10:15:49.941Z,19.30
2023-09-17T10:18:18.693Z,17.90
2023-09-17T10:20:49.905Z,18.45
2023-09-17T10:23:18.829Z,18.03
2023-09-17T10:25:48.219Z,17.58
2023-09-17T10:28:16.952Z,17.17
2023-09-17T10:30:46.346Z,16.83
2023-09-17T10:33:17.238Z,17.17
2023-09-17T10:35:46.207Z,17.27
2023-09-17T10:38:17.445Z,17.30
2023-09-17T10:40:46.485Z,16.98
2023-09-17T10:43:14.977Z,17.33
2023-09-17T10:45:44.321Z,16.48
2023-09-17T10:48:13.230Z,16.53
2023-09-17T10:50:43.922Z,16.83
2023-09-17T10:53:12.257Z,17.00
2023-09-17T10:55:45.197Z,16.98
2023-09-17T10:58:15.863Z,17.60
2023-09-17T11:00:44.830Z,16.85
2023-09-17T11:03:14.769Z,16.17
2023-09-17T11:05:44.364Z,17.50
2023-09-17T11:08:12.771Z,17.98
2023-09-17T11:10:44.001Z,17.80
2023-09-17T11:13:13.735Z,16.98
2023-09-17T11:15:42.001Z,18.67
2023-09-17T11:18:12.144Z,15.02
2023-09-17T11:20:55.346Z,17.15
2023-09-17T11:23:37.545Z,17.33
2023-09-17T11:26:07.214Z,17.48
2023-09-17T11:28:37.836Z,18.05
2023-09-17T11:31:07.501Z,18.08
2023-09-17T11:33:36.968Z,19.88
2023-09-17T11:36:05.891Z,19.98
2023-09-17T11:38:34.452Z,21.10
2023-09-17T11:41:08.161Z,21.60
2023-09-17T11:43:37.875Z,21.67
2023-09-17T11:46:07.209Z,22.25
2023-09-17T11:48:37.477Z,21.52
2023-09-17T11:51:22.306Z,19.05
2023-09-17T11:53:56.788Z,19.40
2023-09-17T11:56:26.747Z,21.55
2023-09-17T11:59:05.238Z,20.30
2023-09-17T12:01:37.905Z,20.33
2023-09-17T12:04:08.197Z,20.80
2023-09-17T12:06:37.921Z,22.00
2023-09-17T12:09:12.829Z,23.00
2023-09-17T12:11:43.307Z,22.50
2023-09-17T12:14:11.562Z,22.20
2023-09-17T12:16:40.347Z,23.58
2023-09-17T12:19:17.820Z,20.75
2023-09-17T12:21:48.402Z,22.92
2023-09-17T12:24:26.912Z,22.90
2023-09-17T12:27:20.613Z,22.73
2023-09-17T12:29:49.229Z,23.73
2023-09-17T12:32:20.855Z,24.38
2023-09-17T12:34:50.761Z,24.05
2023-09-17T12:37:19.310Z,23.20
2023-09-17T12:39:47.982Z,24.92
2023-09-17T12:42:17.676Z,22.20
2023-09-17T12:44:46.114Z,27.00
2023-09-17T12:47:14.653Z,24.27
2023-09-17T12:49:43.580Z,22.33
2023-09-17T12:52:13.632Z,24.77
2023-09-17T12:54:42.094Z,23.33
2023-09-17T12:57:10.500Z,24.88
2023-09-17T12:59:40.470Z,25.42
2023-09-17T13:02:09.716Z,25.30
2023-09-17T13:04:38.543Z,23.83
2023-09-17T13:07:07.480Z,27.10
2023-09-17T13:09:35.798Z,25.38
2023-09-17T13:12:04.132Z,29.40
2023-09-17T13:14:33.343Z,27.33
2023-09-17T13:17:03.131Z,26.80
2023-09-17T13:19:31.394Z,26.48
2023-09-17T13:21:59.689Z,26.23
2023-09-17T13:24:28.409Z,25.30
2023-09-17T13:27:01.002Z,32.17
2023-09-17T13:29:34.546Z,30.33
2023-09-17T13:32:04.519Z,27.02
2023-09-17T13:34:32.833Z,31.73
2023-09-17T13:37:01.187Z,30.30
2023-09-17T13:39:29.398Z,33.63
2023-09-17T13:41:58.038Z,34.42
2023-09-17T13:44:26.325Z,31.88
2023-09-17T13:46:55.986Z,31.80
2023-09-17T13:49:25.956Z,32.85
2023-09-17T13:51:54.949Z,34.60
2023-09-17T13:54:23.516Z,38.58
2023-09-17T13:56:51.810Z,39.53
2023-09-17T13:59:20.245Z,38.53
2023-09-17T14:01:48.535Z,37.58
2023-09-17T14:04:16.790Z,36.75
2023-09-17T14:06:46.409Z,36.25
2023-09-17T14:09:14.650Z,37.88
2023-09-17T14:11:42.917Z,37.95
2023-09-17T14:14:11.187Z,38.58
2023-09-17T14:16:39.545Z,39.40
2023-09-17T14:19:07.814Z,37.17
2023-09-17T14:21:38.946Z,39.03
2023-09-17T14:24:08.820Z,36.50
2023-09-17T14:26:37.039Z,39.72
2023-09-17T14:29:05.403Z,41.55
2023-09-17T14:31:33.655Z,44.33
2023-09-17T14:34:02.007Z,39.53
2023-09-17T14:36:30.246Z,43.85
2023-09-17T14:38:58.464Z,40.22
2023-09-17T14:41:28.553Z,45.65
2023-09-17T14:43:56.859Z,40.88
2023-09-17T14:46:25.202Z,42.22
2023-09-17T14:48:53.927Z,41.88
2023-09-17T14:51:22.482Z,44.35
2023-09-17T14:53:50.700Z,38.65
2023-09-17T14:56:19.018Z,43.20
2023-09-17T14:58:48.897Z,39.42
2023-09-17T15:01:40.093Z,42.45
2023-09-17T15:04:05.693Z,42.35
2023-09-17T15:06:33.985Z,41.88
2023-09-17T15:09:02.262Z,39.20
2023-09-17T15:11:30.491Z,39.15
2023-09-17T15:14:00.117Z,41.45
2023-09-17T15:16:29.060Z,40.30
2023-09-17T15:18:57.400Z,39.67
2023-09-17T15:21:27.052Z,40.88
2023-09-17T15:23:55.292Z,43.08
2023-09-17T15:26:23.537Z,40.28
2023-09-17T15:28:51.978Z,38.42
2023-09-17T15:31:23.128Z,40.58
2023-09-17T15:33:51.820Z,37.45
2023-09-17T15:36:20.212Z,40.90
2023-09-17T15:38:48.432Z,40.53
2023-09-17T15:41:16.913Z,38.70
2023-09-17T15:43:45.348Z,36.65
2023-09-17T15:46:13.612Z,38.00
2023-09-17T15:48:43.215Z,36.42
2023-09-17T15:51:11.795Z,32.63
2023-09-17T15:53:40.063Z,31.20
2023-09-17T15:56:08.376Z,30.58
2023-09-17T15:58:36.645Z,27.70
2023-09-17T16:01:03.920Z,30.58
2023-09-17T16:03:32.215Z,27.70
2023-09-17T16:06:02.080Z,27.58
2023-09-17T16:08:30.305Z,30.00
2023-09-17T16:10:58.683Z,29.15
2023-09-17T16:13:27.216Z,28.05
2023-09-17T16:15:55.477Z,28.20
2023-09-17T16:18:23.781Z,26.90
2023-09-17T16:20:52.028Z,28.83
2023-09-17T16:23:21.738Z,28.73
2023-09-17T16:25:50.014Z,28.98
2023-09-17T16:28:18.231Z,28.02
2023-09-17T16:30:46.456Z,28.63
2023-09-17T16:33:14.782Z,30.00
2023-09-17T16:35:43.146Z,28.45
2023-09-17T16:38:11.423Z,29.23
2023-09-17T16:40:43.830Z,29.50
2023-09-17T16:43:13.754Z,29.35
2023-09-17T16:45:44.209Z,32.60
2023-09-17T16:48:13.237Z,30.05
2023-09-17T16:50:41.481Z,32.88
2023-09-17T16:53:09.777Z,34.05
2023-09-17T16:55:39.079Z,33.35
2023-09-17T16:58:08.788Z,34.17
2023-09-17T17:00:37.127Z,33.88
2023-09-17T17:03:05.616Z,35.70
2023-09-17T17:05:34.002Z,35.50
2023-09-17T17:08:02.295Z,34.08
2023-09-17T17:10:30.739Z,36.30
2023-09-17T17:12:58.946Z,34.03
2023-09-17T17:15:28.540Z,36.90
2023-09-17T17:17:57.640Z,32.67
2023-09-17T17:20:25.949Z,36.88
2023-09-17T17:22:54.264Z,34.28
2023-09-17T17:25:22.630Z,33.22
2023-09-17T17:27:52.227Z,31.55
2023-09-17T17:30:20.549Z,34.15
2023-09-17T17:32:50.622Z,32.95
2023-09-17T17:35:20.249Z,34.78
2023-09-17T17:37:48.586Z,32.13
2023-09-17T17:40:17.096Z,34.25
2023-09-17T17:42:45.300Z,38.75
2023-09-17T17:45:13.488Z,34.38
2023-09-17T17:47:41.825Z,36.03
2023-09-17T17:50:14.792Z,32.67
2023-09-17T17:52:43.491Z,32.55
2023-09-17T17:55:11.876Z,34.88
2023-09-17T17:57:40.076Z,34.47
2023-09-17T18:00:10.646Z,35.80
2023-09-17T18:02:40.360Z,30.77
2023-09-17T18:05:09.365Z,33.67
2023-09-17T18:07:39.496Z,35.55
2023-09-17T18:10:08.917Z,32.15
2023-09-17T18:12:37.228Z,33.30
2023-09-17T18:15:05.925Z,34.28
2023-09-17T18:17:34.225Z,37.97
2023-09-17T18:20:03.268Z,38.85
2023-09-17T18:22:31.579Z,34.97
2023-09-17T18:25:01.643Z,37.90
2023-09-17T18:27:30.694Z,35.67
2023-09-17T18:29:58.908Z,37.83
2023-09-17T18:32:27.253Z,38.20
2023-09-17T18:34:55.553Z,37.83
2023-09-17T18:37:27.475Z,39.00
2023-09-17T18:39:55.879Z,37.65
2023-09-17T18:42:25.481Z,37.08
2023-09-17T18:44:53.780Z,39.70
2023-09-17T18:47:22.132Z,41.20
2023-09-17T18:49:53.128Z,37.58
2023-09-17T18:52:21.436Z,42.92
2023-09-17T18:54:49.890Z,41.05
2023-09-17T18:57:18.197Z,41.33
2023-09-17T18:59:49.858Z,44.17
2023-09-17T19:02:18.152Z,42.25
2023-09-17T19:04:48.407Z,45.08
2023-09-17T19:07:16.762Z,44.65
2023-09-17T19:09:44.999Z,52.70
2023-09-17T19:12:13.239Z,47.28
2023-09-17T19:14:41.526Z,51.38
2023-09-17T19:17:11.134Z,50.90
2023-09-17T19:19:39.343Z,50.80
2023-09-17T19:22:10.232Z,50.38
2023-09-17T19:24:38.855Z,56.28
2023-09-17T19:27:07.389Z,52.95
2023-09-17T19:29:35.629Z,55.28
2023-09-17T19:32:04.653Z,51.55
2023-09-17T19:34:35.332Z,54.97
2023-09-17T19:37:03.614Z,51.80
2023-09-17T19:39:32.182Z,57.53
2023-09-17T19:42:00.446Z,56.03
2023-09-17T19:44:28.692Z,58.28
2023-09-17T19:46:59.821Z,63.17
2023-09-17T19:49:28.557Z,59.53
2023-09-17T19:51:58.161Z,57.15
2023-09-17T19:54:26.808Z,60.55
2023-09-17T19:56:54.999Z,62.70
2023-09-17T19:59:23.273Z,62.70
2023-09-17T20:01:51.664Z,56.92
2023-09-17T20:04:20.265Z,57.60
2023-09-17T20:06:55.051Z,59.97
2023-09-17T20:09:26.565Z,61.80
2023-09-17T20:11:56.248Z,60.95
2023-09-17T20:14:25.488Z,64.20
2023-09-17T20:16:53.898Z,59.92
2023-09-17T20:19:22.356Z,61.08
2023-09-17T20:21:51.371Z,60.13
2023-09-17T20:24:19.686Z,60.05
2023-09-17T20:26:49.435Z,63.45
2023-09-17T20:29:17.726Z,62.65
2023-09-17T20:31:52.988Z,61.05
2023-09-17T20:34:21.328Z,64.53
2023-09-17T20:36:49.576Z,64.03
2023-09-17T20:39:17.793Z,62.47
2023-09-17T20:41:46.417Z,63.00
2023-09-17T20:44:16.016Z,62.70
2023-09-17T20:46:44.255Z,61.58
2023-09-17T20:49:12.494Z,57.85
2023-09-17T20:51:41.468Z,62.65
2023-09-17T20:54:09.659Z,60.33
2023-09-17T20:56:38.103Z,57.53
2023-09-17T20:59:06.421Z,59.47
2023-09-17T21:01:36.076Z,62.03
2023-09-17T21:04:04.856Z,61.92
2023-09-17T21:06:33.154Z,60.88
2023-09-17T21:09:04.289Z,61.13
2023-09-17T21:11:33.164Z,61.08
2023-09-17T21:14:01.472Z,60.65
2023-09-17T21:16:30.567Z,61.78
2023-09-17T21:19:00.127Z,58.00
2023-09-17T21:21:28.640Z,62.22
2023-09-17T21:23:57.449Z,57.40
2023-09-17T21:26:25.876Z,57.00
2023-09-17T21:28:55.354Z,55.45
2023-09-17T21:31:24.539Z,58.67
2023-09-17T21:33:53.183Z,59.47
2023-09-17T21:36:23.395Z,55.08
2023-09-17T21:38:52.052Z,54.90
2023-09-17T21:41:20.443Z,55.63
2023-09-17T21:43:48.886Z,55.45
2023-09-17T21:46:17.980Z,53.05
2023-09-17T21:48:46.199Z,53.65
2023-09-17T21:51:14.583Z,54.75
2023-09-17T21:53:44.869Z,56.63
2023-09-17T21:56:13.239Z,53.70
2023-09-17T21:58:41.667Z,51.60
2023-09-17T22:01:09.939Z,55.13
2023-09-17T22:03:38.238Z,49.78
2023-09-17T22:06:07.305Z,49.20
2023-09-17T22:08:35.930Z,48.90
2023-09-17T22:11:07.652Z,52.05
2023-09-17T22:13:36.236Z,51.28
2023-09-17T22:16:04.790Z,50.92
2023-09-17T22:18:33.471Z,49.60
2023-09-17T22:21:08.087Z,48.05
2023-09-17T22:23:36.696Z,48.25
2023-09-17T22:26:08.155Z,51.30
2023-09-17T22:28:36.975Z,46.65
2023-09-17T22:31:12.593Z,53.60
2023-09-17T22:33:42.068Z,48.42
2023-09-17T22:36:11.149Z,47.75
2023-09-17T22:38:41.380Z,44.15
2023-09-17T22:41:12.829Z,47.95
2023-09-17T22:43:41.330Z,49.95
2023-09-17T22:46:09.553Z,45.13
2023-09-17T22:48:38.263Z,46.35
2023-09-17T22:51:06.708Z,47.40
2023-09-17T22:53:35.014Z,44.10
2023-09-17T22:56:03.347Z,42.92
2023-09-17T22:58:34.139Z,45.33
2023-09-17T23:01:03.323Z,48.70
2023-09-17T23:03:31.723Z,47.85
2023-09-17T23:05:59.993Z,43.78
2023-09-17T23:08:29.749Z,43.22
2023-09-17T23:11:01.299Z,43.08
2023-09-17T23:13:29.637Z,44.10
2023-09-17T23:15:59.391Z,40.50
2023-09-17T23:18:28.958Z,47.17
2023-09-17T23:20:57.203Z,43.83
2023-09-17T23:23:25.617Z,41.75
2023-09-17T23:25:56.289Z,40.50
2023-09-17T23:28:33.687Z,42.45
2023-09-17T23:31:09.689Z,40.45
2023-09-17T23:33:38.340Z,39.75
2023-09-17T23:36:08.150Z,39.60
2023-09-17T23:38:36.372Z,38.40
2023-09-17T23:41:06.425Z,41.08
2023-09-17T23:43:35.176Z,41.55
2023-09-17T23:46:05.134Z,43.10
2023-09-17T23:48:33.546Z,38.35
2023-09-17T23:51:03.153Z,40.40
2023-09-17T23:53:31.628Z,40.33
2023-09-17T23:56:00.575Z,37.67
2023-09-17T23:58:28.831Z,37.38
